createdAt,value
2023-07-03T00:01:53.538Z,99868.58
2023-07-03T00:04:24.176Z,99858.30
2023-07-03T00:06:54.557Z,99869.66
2023-07-03T00:09:24.268Z,99871.04
2023-07-03T00:11:54.391Z,99870.51
2023-07-03T00:14:24.503Z,99869.70
2023-07-03T00:16:56.385Z,99874.58
2023-07-03T00:19:27.875Z,99875.12
2023-07-03T00:22:01.158Z,99882.16
2023-07-03T00:24:32.960Z,99883.54
2023-07-03T00:27:03.081Z,99883.80
2023-07-03T00:29:34.636Z,99888.66
2023-07-03T00:32:03.382Z,99878.95
2023-07-03T00:34:34.057Z,99870.33
2023-07-03T00:37:07.837Z,99870.61
2023-07-03T00:39:37.976Z,99881.67
2023-07-03T00:42:09.784Z,99874.66
2023-07-03T00:44:39.846Z,99881.14
2023-07-03T00:47:11.859Z,99879.52
2023-07-03T00:49:40.615Z,99881.69
2023-07-03T00:52:12.568Z,99879.53
2023-07-03T00:54:43.191Z,99885.23
2023-07-03T00:57:15.350Z,99883.87
2023-07-03T00:59:46.495Z,99886.56
2023-07-03T01:02:21.294Z,99888.73
2023-07-03T01:04:57.067Z,99890.89
2023-07-03T01:07:31.189Z,99887.66
2023-07-03T01:10:04.809Z,99885.52
2023-07-03T01:12:38.544Z,99880.41
2023-07-03T01:15:14.799Z,99890.66
2023-07-03T01:17:48.078Z,99892.00
2023-07-03T01:20:20.456Z,99893.91
2023-07-03T01:23:00.374Z,99889.05
2023-07-03T01:25:32.483Z,99895.53
2023-07-03T01:28:04.714Z,99892.30
2023-07-03T01:30:36.899Z,99891.47
2023-07-03T01:33:08.459Z,99891.77
2023-07-03T01:35:40.157Z,99895.00
2023-07-03T01:38:11.241Z,99895.55
2023-07-03T01:40:41.416Z,99896.88
2023-07-03T01:43:13.320Z,99899.04
2023-07-03T01:45:42.164Z,99889.63
2023-07-03T01:48:11.955Z,99888.23
2023-07-03T01:50:43.753Z,99880.68
2023-07-03T01:53:19.201Z,99882.05
2023-07-03T01:55:57.286Z,99895.78
2023-07-03T01:58:33.367Z,99888.23
2023-07-03T02:01:06.215Z,99893.09
2023-07-03T02:03:41.261Z,99901.47
2023-07-03T02:06:16.799Z,99902.80
2023-07-03T02:08:48.816Z,99903.34
2023-07-03T02:11:21.716Z,99903.63
2023-07-03T02:13:54.358Z,99902.00
2023-07-03T02:16:30.188Z,99906.86
2023-07-03T02:19:01.128Z,99913.33
2023-07-03T02:21:31.045Z,99914.41
2023-07-03T02:24:01.789Z,99924.64
2023-07-03T02:26:31.695Z,99923.82
2023-07-03T02:29:02.029Z,99924.36
2023-07-03T02:31:32.753Z,99924.64
2023-07-03T02:34:02.458Z,99924.89
2023-07-03T02:36:37.503Z,99923.27
2023-07-03T02:39:09.869Z,99931.36
2023-07-03T02:41:39.769Z,99931.36
2023-07-03T02:44:10.922Z,99935.67
2023-07-03T02:46:42.828Z,99938.37
2023-07-03T02:49:12.934Z,99935.67
2023-07-03T02:51:43.738Z,99935.13
2023-07-03T02:54:14.057Z,99931.90
2023-07-03T02:56:44.584Z,99938.11
2023-07-03T02:59:15.531Z,99938.11
2023-07-03T03:01:45.847Z,99940.80
2023-07-03T03:04:16.860Z,99941.34
2023-07-03T03:06:47.306Z,99950.23
2023-07-03T03:09:17.459Z,99941.06
2023-07-03T03:11:47.543Z,99941.89
2023-07-03T03:14:17.351Z,99948.90
2023-07-03T03:16:47.434Z,99959.68
2023-07-03T03:19:17.828Z,99955.63
2023-07-03T03:21:50.480Z,99968.84
2023-07-03T03:24:20.941Z,99972.09
2023-07-03T03:26:51.537Z,99972.09
2023-07-03T03:29:21.574Z,99970.73
2023-07-03T03:31:51.774Z,99969.94
2023-07-03T03:34:21.694Z,99966.16
2023-07-03T03:36:51.810Z,99980.97
2023-07-03T03:39:21.922Z,99981.52
2023-07-03T03:41:52.046Z,99975.05
2023-07-03T03:44:22.164Z,99984.75
2023-07-03T03:46:54.343Z,99983.67
2023-07-03T03:49:25.677Z,99977.75
2023-07-03T03:51:56.612Z,99973.97
2023-07-03T03:54:28.390Z,99981.52
2023-07-03T03:56:58.488Z,99982.06
2023-07-03T03:59:29.018Z,99989.90
2023-07-03T04:01:59.185Z,99987.75
2023-07-03T04:04:29.800Z,99990.16
2023-07-03T04:07:00.393Z,99988.58
2023-07-03T04:09:30.517Z,99992.89
2023-07-03T04:12:01.123Z,99996.41
2023-07-03T04:14:31.366Z,99996.13
2023-07-03T04:17:02.344Z,100002.34
2023-07-03T04:19:32.624Z,100006.37
2023-07-03T04:22:02.753Z,100005.84
2023-07-03T04:24:32.857Z,100007.99
2023-07-03T04:27:04.204Z,100014.47
2023-07-03T04:29:34.324Z,100015.55
2023-07-03T04:32:04.729Z,100018.25
2023-07-03T04:34:34.990Z,100024.18
2023-07-03T04:37:09.152Z,100027.42
2023-07-03T04:39:39.104Z,100030.40
2023-07-03T04:42:14.048Z,100029.57
2023-07-03T04:44:44.125Z,100028.23
2023-07-03T04:47:16.845Z,100027.94
2023-07-03T04:49:49.206Z,100030.09
2023-07-03T04:52:20.323Z,100041.16
2023-07-03T04:54:50.267Z,100044.63
2023-07-03T04:57:20.166Z,100051.13
2023-07-03T04:59:50.628Z,100043.28
2023-07-03T05:02:21.663Z,100045.66
2023-07-03T05:04:52.003Z,100052.39
2023-07-03T05:07:23.724Z,100055.05
2023-07-03T05:09:54.454Z,100060.39
2023-07-03T05:12:24.240Z,100061.70
2023-07-03T05:14:55.712Z,100054.09
2023-07-03T05:17:26.047Z,100052.64
2023-07-03T05:19:56.978Z,100059.33
2023-07-03T05:22:27.509Z,100051.38
2023-07-03T05:24:57.629Z,100065.88
2023-07-03T05:27:27.741Z,100062.81
2023-07-03T05:29:58.654Z,100065.96
2023-07-03T05:32:28.695Z,100069.12
2023-07-03T05:34:58.910Z,100071.95
2023-07-03T05:37:28.873Z,100076.70
2023-07-03T05:39:58.951Z,100076.02
2023-07-03T05:42:29.278Z,100074.53
2023-07-03T05:44:59.804Z,100077.09
2023-07-03T05:47:31.163Z,100070.95
2023-07-03T05:50:01.267Z,100076.45
2023-07-03T05:52:32.196Z,100076.04
2023-07-03T05:55:02.306Z,100082.11
2023-07-03T05:57:32.617Z,100082.20
2023-07-03T06:00:06.372Z,100087.42
2023-07-03T06:02:44.091Z,100091.00
2023-07-03T06:05:16.310Z,100094.06
2023-07-03T06:07:46.640Z,100098.22
2023-07-03T06:10:16.571Z,100106.41
2023-07-03T06:12:46.462Z,100102.19
2023-07-03T06:15:17.004Z,100099.83
2023-07-03T06:17:47.328Z,100102.58
2023-07-03T06:20:17.504Z,100097.95
2023-07-03T06:22:47.264Z,100102.88
2023-07-03T06:25:17.463Z,100103.27
2023-07-03T06:27:47.785Z,100113.34
2023-07-03T06:30:17.601Z,100112.55
2023-07-03T06:32:47.437Z,100110.61
2023-07-03T06:35:18.959Z,100113.10
2023-07-03T06:37:49.278Z,100100.08
2023-07-03T06:40:20.011Z,100109.80
2023-07-03T06:42:49.666Z,100112.80
2023-07-03T06:45:22.294Z,100108.42
2023-07-03T06:47:52.758Z,100119.56
2023-07-03T06:50:22.774Z,100108.90
2023-07-03T06:52:52.858Z,100112.05
2023-07-03T06:55:22.984Z,100111.18
2023-07-03T06:57:52.894Z,100109.45
2023-07-03T07:00:24.089Z,100110.97
2023-07-03T07:02:54.436Z,100097.53
2023-07-03T07:05:24.558Z,100105.58
2023-07-03T07:07:54.730Z,100099.70
2023-07-03T07:10:25.296Z,100108.88
2023-07-03T07:12:55.404Z,100110.96
2023-07-03T07:15:25.571Z,100109.22
2023-07-03T07:17:55.761Z,100121.91
2023-07-03T07:20:25.528Z,100118.87
2023-07-03T07:22:55.239Z,100121.75
2023-07-03T07:25:25.153Z,100122.55
2023-07-03T07:27:55.136Z,100129.45
2023-07-03T07:30:25.103Z,100130.54
2023-07-03T07:32:55.802Z,100128.28
2023-07-03T07:35:25.903Z,100130.66
2023-07-03T07:37:55.739Z,100133.38
2023-07-03T07:40:26.845Z,100132.23
2023-07-03T07:42:56.668Z,100125.93
2023-07-03T07:45:26.354Z,100128.61
2023-07-03T07:47:56.763Z,100131.33
2023-07-03T07:50:28.806Z,100121.14
2023-07-03T07:53:00.602Z,100123.84
2023-07-03T07:55:30.655Z,100134.43
2023-07-03T07:58:00.965Z,100127.28
2023-07-03T08:00:30.977Z,100134.79
2023-07-03T08:03:01.247Z,100137.13
2023-07-03T08:05:32.130Z,100137.88
2023-07-03T08:08:02.294Z,100142.13
2023-07-03T08:10:32.188Z,100137.41
2023-07-03T08:13:02.595Z,100144.08
2023-07-03T08:15:32.500Z,100150.75
2023-07-03T08:18:03.069Z,100144.06
2023-07-03T08:20:32.874Z,100139.76
2023-07-03T08:23:02.911Z,100137.27
2023-07-03T08:25:32.993Z,100134.58
2023-07-03T08:28:02.915Z,100140.41
2023-07-03T08:30:33.221Z,100142.70
2023-07-03T08:33:03.727Z,100140.66
2023-07-03T08:38:05.441Z,100142.85
2023-07-03T08:40:35.479Z,100143.66
2023-07-03T08:43:07.448Z,100150.75
2023-07-03T08:45:39.313Z,100151.88
2023-07-03T08:48:15.395Z,100150.25
2023-07-03T08:50:47.689Z,100147.05
2023-07-03T08:53:20.873Z,100138.00
2023-07-03T08:55:55.661Z,100141.84
2023-07-03T08:58:26.235Z,100148.81
2023-07-03T09:01:03.685Z,100145.56
2023-07-03T09:03:42.756Z,100155.72
2023-07-03T09:06:19.523Z,100147.78
2023-07-03T09:09:01.519Z,100148.41
2023-07-03T09:11:36.713Z,100149.49
2023-07-03T09:14:12.619Z,100149.41
2023-07-03T09:16:45.826Z,100147.76
2023-07-03T09:19:21.666Z,100157.97
2023-07-03T09:21:55.687Z,100151.92
2023-07-03T09:24:30.981Z,100150.22
2023-07-03T09:27:10.381Z,100151.55
2023-07-03T09:29:42.631Z,100148.14
2023-07-03T09:32:23.137Z,100152.34
2023-07-03T09:35:06.427Z,100149.36
2023-07-03T09:37:38.482Z,100145.98
2023-07-03T09:40:14.496Z,100139.91
2023-07-03T09:42:45.100Z,100145.63
2023-07-03T09:45:18.159Z,100142.23
2023-07-03T09:47:54.070Z,100142.41
2023-07-03T09:50:29.976Z,100138.11
2023-07-03T09:53:08.539Z,100138.63
2023-07-03T09:55:39.931Z,100134.86
2023-07-03T09:58:15.929Z,100143.27
2023-07-03T10:00:49.584Z,100145.29
2023-07-03T10:08:45.803Z,100130.95
2023-07-03T10:11:23.397Z,100134.58
2023-07-03T10:13:54.581Z,100132.44
2023-07-03T10:16:27.159Z,100133.34
2023-07-03T10:18:59.286Z,100126.00
2023-07-03T10:21:31.297Z,100130.83
2023-07-03T10:24:02.433Z,100122.97
2023-07-03T10:26:40.959Z,100126.16
2023-07-03T10:29:20.046Z,100124.95
2023-07-03T10:31:53.458Z,100125.57
2023-07-03T10:34:28.512Z,100117.52
2023-07-03T10:37:02.255Z,100124.94
2023-07-03T10:39:42.055Z,100119.27
2023-07-03T10:42:20.138Z,100117.90
2023-07-03T10:44:57.622Z,100113.37
2023-07-03T10:47:39.509Z,100109.23
2023-07-03T10:50:12.047Z,100114.17
2023-07-03T10:52:48.300Z,100119.81
2023-07-03T10:55:25.467Z,100121.11
2023-07-03T10:58:02.898Z,100122.06
2023-07-03T11:00:40.391Z,100118.72
2023-07-03T11:03:21.275Z,100119.72
2023-07-03T11:05:57.757Z,100118.91
2023-07-03T11:08:37.134Z,100116.59
2023-07-03T11:11:15.445Z,100108.48
2023-07-03T11:13:52.486Z,100104.72
2023-07-03T11:16:29.966Z,100110.47
2023-07-03T11:24:32.141Z,100106.98
2023-07-03T11:29:44.836Z,100111.34
2023-07-03T11:32:17.148Z,100117.52
2023-07-03T11:40:27.472Z,100123.20
2023-07-03T11:46:21.869Z,100107.08
2023-07-03T11:48:57.918Z,100109.05
2023-07-03T11:51:36.660Z,100104.70
2023-07-03T11:54:19.658Z,100110.14
2023-07-03T11:57:03.039Z,100114.81
2023-07-03T11:59:38.760Z,100119.05
2023-07-03T12:02:44.405Z,100109.06
2023-07-03T12:05:54.184Z,100113.25
2023-07-03T12:08:42.858Z,100115.02
2023-07-03T12:11:15.050Z,100108.54
2023-07-03T12:13:54.287Z,100106.82
2023-07-03T12:16:28.408Z,100105.88
2023-07-03T12:19:05.051Z,100105.31
2023-07-03T12:21:46.854Z,100100.39
2023-07-03T12:24:22.769Z,100099.73
2023-07-03T12:26:55.492Z,100095.67
2023-07-03T12:29:25.182Z,100093.65
2023-07-03T12:32:05.862Z,100089.64
2023-07-03T12:34:37.921Z,100092.34
2023-07-03T12:37:15.390Z,100089.50
2023-07-03T12:39:46.322Z,100085.09
2023-07-03T12:42:19.876Z,100090.17
2023-07-03T12:44:50.260Z,100086.60
2023-07-03T12:47:22.253Z,100087.56
2023-07-03T12:49:56.491Z,100077.11
2023-07-03T12:52:27.478Z,100080.36
2023-07-03T12:55:14.065Z,100082.50
2023-07-03T12:57:46.050Z,100078.64
2023-07-03T13:00:25.993Z,100079.59
2023-07-03T13:03:00.639Z,100073.04
2023-07-03T13:05:34.192Z,100085.49
2023-07-03T13:08:07.741Z,100083.21
2023-07-03T13:10:38.131Z,100083.72
2023-07-03T13:13:10.889Z,100083.41
2023-07-03T13:15:43.284Z,100087.06
2023-07-03T13:18:20.579Z,100080.87
2023-07-03T13:20:59.539Z,100088.03
2023-07-03T13:23:32.454Z,100080.58
2023-07-03T13:26:04.398Z,100091.11
2023-07-03T13:28:36.700Z,100100.93
2023-07-03T13:31:12.543Z,100105.66
2023-07-03T13:33:44.662Z,100098.88
2023-07-03T13:36:27.093Z,100102.48
2023-07-03T13:39:07.913Z,100096.17
2023-07-03T13:41:37.543Z,100098.41
2023-07-03T13:44:09.666Z,100109.20
2023-07-03T13:46:40.585Z,100101.77
2023-07-03T13:49:11.097Z,100104.69
2023-07-03T13:51:42.697Z,100100.52
2023-07-03T13:54:13.287Z,100103.09
2023-07-03T13:56:44.172Z,100105.37
2023-07-03T13:59:14.436Z,100101.73
2023-07-03T14:01:45.279Z,100094.57
2023-07-03T14:04:15.241Z,100101.28
2023-07-03T14:06:46.114Z,100104.98
2023-07-03T14:09:16.195Z,100098.59
2023-07-03T14:11:46.521Z,100098.30
2023-07-03T14:14:16.222Z,100104.49
2023-07-03T14:16:46.552Z,100103.56
2023-07-03T14:19:16.875Z,100100.81
2023-07-03T14:21:46.792Z,100106.44
2023-07-03T14:24:17.112Z,100107.34
2023-07-03T14:26:46.818Z,100107.58
2023-07-03T14:29:17.348Z,100109.62
2023-07-03T14:31:49.358Z,100111.80
2023-07-03T14:34:20.184Z,100106.31
2023-07-03T14:36:50.172Z,100115.48
2023-07-03T14:39:20.282Z,100115.56
2023-07-03T14:41:50.602Z,100113.39
2023-07-03T14:44:20.461Z,100119.78
2023-07-03T14:46:50.637Z,100121.02
2023-07-03T14:49:20.557Z,100116.34
2023-07-03T14:51:50.874Z,100117.23
2023-07-03T14:54:23.194Z,100120.06
2023-07-03T14:56:53.364Z,100116.62
2023-07-03T14:59:23.497Z,100114.69
2023-07-03T15:01:53.265Z,100118.22
2023-07-03T15:04:23.228Z,100111.13
2023-07-03T15:06:54.054Z,100120.88
2023-07-03T15:09:25.192Z,100119.63
2023-07-03T15:11:55.511Z,100117.23
2023-07-03T15:14:25.777Z,100119.53
2023-07-03T15:16:55.689Z,100120.31
2023-07-03T15:19:26.077Z,100110.48
2023-07-03T15:21:56.396Z,100115.44
2023-07-03T15:24:27.068Z,100117.03
2023-07-03T15:26:57.387Z,100110.64
2023-07-03T15:29:28.053Z,100118.06
2023-07-03T15:31:57.517Z,100122.86
2023-07-03T15:34:28.208Z,100120.03
2023-07-03T15:36:58.131Z,100115.69
2023-07-03T15:39:28.262Z,100113.63
2023-07-03T15:41:58.566Z,100112.37
2023-07-03T15:44:28.595Z,100109.17
2023-07-03T15:46:58.666Z,100112.25
2023-07-03T15:49:31.657Z,100120.48
2023-07-03T15:52:02.736Z,100123.94
2023-07-03T15:54:35.788Z,100121.06
2023-07-03T15:57:08.212Z,100125.75
2023-07-03T15:59:38.208Z,100126.44
2023-07-03T16:02:08.821Z,100126.80
2023-07-03T16:04:38.924Z,100122.91
2023-07-03T16:07:09.185Z,100121.31
2023-07-03T16:09:39.295Z,100123.24
2023-07-03T16:12:10.388Z,100128.41
2023-07-03T16:14:39.127Z,100129.55
2023-07-03T16:17:09.519Z,100139.72
2023-07-03T16:19:40.185Z,100122.55
2023-07-03T16:22:10.298Z,100124.96
2023-07-03T16:24:39.810Z,100125.75
2023-07-03T16:27:09.928Z,100120.25
2023-07-03T16:29:43.083Z,100128.98
2023-07-03T16:32:13.441Z,100123.48
2023-07-03T16:34:43.237Z,100126.23
2023-07-03T16:37:13.272Z,100129.31
2023-07-03T16:39:43.187Z,100137.55
2023-07-03T16:42:13.125Z,100138.70
2023-07-03T16:44:43.215Z,100134.35
2023-07-03T16:47:13.194Z,100146.48
2023-07-03T16:49:43.662Z,100143.28
2023-07-03T16:52:15.006Z,100148.66
2023-07-03T16:54:45.255Z,100160.78
2023-07-03T16:57:15.042Z,100158.28
2023-07-03T16:59:45.772Z,100163.22
2023-07-03T17:02:16.215Z,100160.13
2023-07-03T17:04:46.103Z,100159.35
2023-07-03T17:07:16.126Z,100158.30
2023-07-03T17:09:46.457Z,100159.88
2023-07-03T17:12:16.372Z,100164.20
2023-07-03T17:14:46.059Z,100159.17
2023-07-03T17:17:17.679Z,100166.70
2023-07-03T17:19:47.957Z,100169.20
2023-07-03T17:22:17.662Z,100170.44
2023-07-03T17:24:47.935Z,100167.28
2023-07-03T17:27:17.905Z,100169.45
2023-07-03T17:29:48.224Z,100166.45
2023-07-03T17:32:18.143Z,100174.88
2023-07-03T17:34:48.264Z,100167.66
2023-07-03T17:37:18.582Z,100173.34
2023-07-03T17:39:48.906Z,100173.23
2023-07-03T17:42:19.148Z,100181.66
2023-07-03T17:44:49.146Z,100179.12
2023-07-03T17:47:19.682Z,100188.33
2023-07-03T17:49:50.004Z,100190.45
2023-07-03T17:52:20.109Z,100186.30
2023-07-03T17:54:50.232Z,100190.03
2023-07-03T17:57:20.484Z,100194.09
2023-07-03T17:59:50.588Z,100203.64
2023-07-03T18:02:20.599Z,100203.70
2023-07-03T18:04:50.479Z,100204.41
2023-07-03T18:07:21.361Z,100194.96
2023-07-03T18:09:51.357Z,100210.59
2023-07-03T18:12:21.668Z,100211.77
2023-07-03T18:14:51.586Z,100213.40
2023-07-03T18:17:21.716Z,100215.67
2023-07-03T18:19:51.616Z,100215.23
2023-07-03T18:22:21.736Z,100210.11
2023-07-03T18:24:52.477Z,100205.44
2023-07-03T18:27:22.795Z,100217.98
2023-07-03T18:29:52.678Z,100217.19
2023-07-03T18:32:23.808Z,100214.95
2023-07-03T18:34:53.979Z,100222.84
2023-07-03T18:37:26.135Z,100220.58
2023-07-03T18:39:56.684Z,100234.73
2023-07-03T18:42:27.010Z,100240.66
2023-07-03T18:44:57.113Z,100243.06
2023-07-03T18:47:30.703Z,100236.45
2023-07-03T18:50:01.244Z,100241.59
2023-07-03T18:52:31.564Z,100240.92
2023-07-03T18:55:01.471Z,100236.24
2023-07-03T18:57:32.540Z,100240.24
2023-07-03T19:00:04.180Z,100251.16
2023-07-03T19:02:32.938Z,100255.78
2023-07-03T19:05:06.336Z,100257.67
2023-07-03T19:07:36.791Z,100255.69
2023-07-03T19:10:17.827Z,100261.91
2023-07-03T19:12:48.912Z,100268.13
2023-07-03T19:15:19.996Z,100266.16
2023-07-03T19:17:50.124Z,100270.43
2023-07-03T19:20:21.520Z,100276.64
2023-07-03T19:22:52.857Z,100280.11
2023-07-03T19:25:22.575Z,100274.29
2023-07-03T19:27:52.677Z,100280.19
2023-07-03T19:30:22.827Z,100272.73
2023-07-03T19:32:52.929Z,100275.87
2023-07-03T19:35:23.056Z,100278.54
2023-07-03T19:37:54.388Z,100290.66
2023-07-03T19:40:25.117Z,100285.13
2023-07-03T19:42:55.227Z,100278.47
2023-07-03T19:45:25.181Z,100280.02
2023-07-03T19:47:55.212Z,100276.91
2023-07-03T19:50:25.425Z,100290.09
2023-07-03T19:52:55.701Z,100287.27
2023-07-03T19:55:27.878Z,100283.04
2023-07-03T19:57:58.196Z,100297.07
2023-07-03T20:00:28.209Z,100289.61
2023-07-03T20:02:58.496Z,100296.55
2023-07-03T20:05:28.548Z,100298.58
2023-07-03T20:07:59.489Z,100305.52
2023-07-03T20:10:29.337Z,100301.08
2023-07-03T20:13:00.553Z,100294.41
2023-07-03T20:15:32.099Z,100302.13
2023-07-03T20:18:02.245Z,100302.52
2023-07-03T20:20:32.378Z,100300.17
2023-07-03T20:23:02.803Z,100304.91
2023-07-03T20:25:32.783Z,100307.20
2023-07-03T20:28:03.725Z,100306.46
2023-07-03T20:30:33.474Z,100303.31
2023-07-03T20:33:03.403Z,100308.83
2023-07-03T20:35:33.455Z,100312.73
2023-07-03T20:38:03.784Z,100318.24
2023-07-03T20:40:33.552Z,100317.53
2023-07-03T20:43:04.021Z,100315.64
2023-07-03T20:45:34.970Z,100318.44
2023-07-03T20:48:06.554Z,100314.17
2023-07-03T20:50:42.364Z,100316.97
2023-07-03T20:53:12.445Z,100315.14
2023-07-03T20:55:44.259Z,100316.83
2023-07-03T20:58:14.155Z,100325.84
2023-07-03T21:00:44.269Z,100327.52
2023-07-03T21:03:14.259Z,100321.05
2023-07-03T21:05:44.714Z,100327.07
2023-07-03T21:08:15.233Z,100329.58
2023-07-03T21:10:45.472Z,100331.25
2023-07-03T21:13:15.673Z,100331.01
2023-07-03T21:15:46.538Z,100329.97
2023-07-03T21:18:16.325Z,100336.81
2023-07-03T21:20:46.826Z,100340.10
2023-07-03T21:23:16.576Z,100334.42
2023-07-03T21:25:48.326Z,100336.10
2023-07-03T21:28:18.647Z,100340.46
2023-07-03T21:30:48.585Z,100338.32
2023-07-03T21:33:20.857Z,100346.52
2023-07-03T21:35:52.693Z,100346.84
2023-07-03T21:38:23.622Z,100346.10
2023-07-03T21:40:54.966Z,100349.14
2023-07-03T21:43:25.848Z,100344.58
2023-07-03T21:46:03.207Z,100346.25
2023-07-03T21:48:35.774Z,100353.34
2023-07-03T21:51:07.325Z,100353.09
2023-07-03T21:53:37.239Z,100352.86
2023-07-03T21:56:10.019Z,100356.72
2023-07-03T21:58:41.580Z,100357.28
2023-07-03T22:01:19.068Z,100356.23
2023-07-03T22:03:49.127Z,100363.31
2023-07-03T22:06:19.269Z,100355.75
2023-07-03T22:08:50.855Z,100363.63
2023-07-03T22:11:20.977Z,100361.45
2023-07-03T22:13:51.287Z,100363.92
2023-07-03T22:16:22.042Z,100366.67
2023-07-03T22:18:52.353Z,100356.96
2023-07-03T22:21:22.583Z,100359.41
2023-07-03T22:23:52.784Z,100353.76
2023-07-03T22:26:22.668Z,100355.41
2023-07-03T22:28:52.806Z,100355.97
2023-07-03T22:31:24.974Z,100354.92
2023-07-03T22:33:55.111Z,100357.36
2023-07-03T22:36:25.431Z,100356.04
2023-07-03T22:38:55.138Z,100358.48
2023-07-03T22:41:25.455Z,100352.00
2023-07-03T22:43:55.802Z,100357.72
2023-07-03T22:46:26.350Z,100357.45
2023-07-03T22:48:56.650Z,100350.70
2023-07-03T22:51:26.962Z,100355.59
2023-07-03T22:53:57.430Z,100355.33
2023-07-03T22:56:28.425Z,100357.50
2023-07-03T22:58:58.341Z,100351.02
2023-07-03T23:01:28.662Z,100354.03
2023-07-03T23:03:58.409Z,100355.67
2023-07-03T23:06:28.277Z,100361.34
2023-07-03T23:08:58.416Z,100358.11
2023-07-03T23:11:28.656Z,100357.55
2023-07-03T23:13:59.099Z,100351.89
2023-07-03T23:16:29.421Z,100350.27
2023-07-03T23:18:59.495Z,100355.41
2023-07-03T23:21:29.623Z,100354.88
2023-07-03T23:23:59.524Z,100356.52
2023-07-03T23:26:29.478Z,100355.19
2023-07-03T23:29:02.032Z,100358.16
2023-07-03T23:31:32.049Z,100359.80
2023-07-03T23:34:02.390Z,100361.17
2023-07-03T23:36:34.013Z,100370.64
2023-07-03T23:39:02.897Z,100369.30
2023-07-03T23:41:33.266Z,100370.94
2023-07-03T23:44:03.264Z,100375.81
2023-07-03T23:46:33.277Z,100375.28
2023-07-03T23:49:03.379Z,100382.33
2023-07-03T23:51:33.294Z,100377.17
2023-07-03T23:54:03.608Z,100386.66
2023-07-03T23:56:33.242Z,100378.27
2023-07-03T23:59:04.382Z,100379.64
